Tinker Air Force Base
KTIK : now visible

Aeroporto :











RITROVATECI SU...

 
LOGIN :

Iscrizione | Disclaimer

   EN    FR    IT 

 









Sommario :    VFR   VFR Marginale   IFR   IFR Intensivo   IFR Molto Intensivo
Visibilità : 
Base nubi : 
>= 8 km
>= 3000ft
5 / 8 km
1000 / 3000 ft
1500m / 5 km
500 / 1000 ft
800 / 1500m
200 / 500 ft
< 800m
< 200 ft
Simboli :   Temporali  Nebbia  Neve Forte  Precipitazioni Forti  Vento > 20 kt







- Altitudine del aeroporto : 1291 ft


KTIK - Tinker Air Force Base

ULTIMO METAR :
  • 222226Z AUTO 21007KT 10SM FEW017 SCT023 OVC049 21/17 A3003 RMK AO2 SLP168 $

METARs OBSOLETI :
  • 222156Z AUTO 19007KT 10SM OVC020 21/17 A3003 RMK AO2 CIG 019 RWY13 SLP168 T02060170 $
  • 222056Z AUTO 20008KT 10SM OVC018 20/17 A3003 RMK AO2 CIG 017 RWY13 SLP168 T02020166 53002 $
  • 221956Z AUTO 17009KT 10SM OVC017 20/16 A3002 RMK AO2 SLP165 T02020164 $

TAF AMD TAF KTIK
Valido dal 22 a 20 ore il 23 a 23 ore UTC


222000Z 2220/2323 19012KT 9999 BKN015 510202 QNH2998INS
BECMG 2305/2306 VRB06KT 8000 -SHRA BKN015 QNH3002INS
TEMPO 2306/2309 6000 -TSRA BKN010CB
BECMG 2308/2309 15012KT 8000 -SHRA BKN010 QNH2997INS
TEMPO 2309/2311 6000 -TSRA BKN008CB
BECMG 2311/2312 01009KT 8000 -SHRA BKN005 QNH2996INS TX24/2221Z TN14/2313Z
FIR KZFW / America del Nord



MetMap, La meteo Aeronautica in un colpo d'occhio ! - Copyright ORBIFLY Dicembre 2007 - Disclaimer

ORBIFLY MET'MAP TEAM :

Programmazione e sviluppo : Alexandra Zaïnal
Concezione e sviluppo : Baudouin d'Aumeries
Co-Programmazione e sviluppo : Marc-Olivier Méhu
Supporto tecnico e logistico : Manuel Goepfert
Aiuto per la traduzione : Arnaldo La Scala

Contatto : metmap@orbifly.com




FONTI E CREDITI :

   NOAA       Earth
Advisory